sensor_id;sensor_type;location;lat;lon;timestamp;pressure;altitude;pressure_sealevel;temperature;humidity
68366;BME280;55283;51.466;5.478;2022-08-07T00:01:39;102500.81;;;25.58;29.04
68366;BME280;55283;51.466;5.478;2022-08-07T00:04:05;102501.59;;;25.59;28.93
68366;BME280;55283;51.466;5.478;2022-08-07T00:06:31;102508.03;;;25.59;28.99
68366;BME280;55283;51.466;5.478;2022-08-07T00:08:57;102501.22;;;25.57;28.99
68366;BME280;55283;51.466;5.478;2022-08-07T00:11:22;102498.41;;;25.57;29.02
68366;BME280;55283;51.466;5.478;2022-08-07T00:13:48;102465.09;;;25.32;29.02
68366;BME280;55283;51.466;5.478;2022-08-07T00:16:13;102491.59;;;25.54;29.15
68366;BME280;55283;51.466;5.478;2022-08-07T00:18:41;102488.88;;;25.50;29.19
68366;BME280;55283;51.466;5.478;2022-08-07T00:21:10;102488.88;;;25.50;29.19
68366;BME280;55283;51.466;5.478;2022-08-07T00:23:37;102487.28;;;25.49;29.25
68366;BME280;55283;51.466;5.478;2022-08-07T00:26:09;102486.50;;;25.49;29.12
68366;BME280;55283;51.466;5.478;2022-08-07T00:28:35;102486.91;;;25.47;29.29
68366;BME280;55283;51.466;5.478;2022-08-07T00:31:06;102457.03;;;25.30;29.19
68366;BME280;55283;51.466;5.478;2022-08-07T00:33:33;102476.88;;;25.46;29.09
68366;BME280;55283;51.466;5.478;2022-08-07T00:35:58;102475.25;;;25.45;29.07
68366;BME280;55283;51.466;5.478;2022-08-07T00:38:24;102469.28;;;25.43;29.27
68366;BME280;55283;51.466;5.478;2022-08-07T00:40:49;102465.22;;;25.44;29.22
68366;BME280;55283;51.466;5.478;2022-08-07T00:43:15;102456.09;;;25.37;29.15
68366;BME280;55283;51.466;5.478;2022-08-07T00:45:41;102475.81;;;25.40;29.34
68366;BME280;55283;51.466;5.478;2022-08-07T00:48:08;102466.09;;;25.41;29.23
68366;BME280;55283;51.466;5.478;2022-08-07T00:50:33;102472.16;;;25.40;29.32
68366;BME280;55283;51.466;5.478;2022-08-07T00:52:59;102467.38;;;25.37;29.37
68366;BME280;55283;51.466;5.478;2022-08-07T00:55:24;102478.25;;;25.38;29.35
68366;BME280;55283;51.466;5.478;2022-08-07T00:57:50;102462.19;;;25.35;29.50
68366;BME280;55283;51.466;5.478;2022-08-07T01:00:16;102432.69;;;25.20;29.45
68366;BME280;55283;51.466;5.478;2022-08-07T01:02:43;102454.53;;;25.36;29.30
68366;BME280;55283;51.466;5.478;2022-08-07T01:05:09;102462.19;;;25.35;29.37
68366;BME280;55283;51.466;5.478;2022-08-07T01:07:35;102459.78;;;25.34;29.46
68366;BME280;55283;51.466;5.478;2022-08-07T01:10:00;102454.22;;;25.30;29.46
68366;BME280;55283;51.466;5.478;2022-08-07T01:12:27;102456.59;;;25.32;29.48
68366;BME280;55283;51.466;5.478;2022-08-07T01:14:53;102453.84;;;25.28;29.55
68366;BME280;55283;51.466;5.478;2022-08-07T01:17:21;102458.63;;;25.31;29.57
68366;BME280;55283;51.466;5.478;2022-08-07T01:19:48;102446.53;;;25.30;29.74
68366;BME280;55283;51.466;5.478;2022-08-07T01:22:13;102448.19;;;25.28;29.65
68366;BME280;55283;51.466;5.478;2022-08-07T01:24:40;102451.03;;;25.28;29.65
68366;BME280;55283;51.466;5.478;2022-08-07T01:27:06;102444.25;;;25.25;29.70
68366;BME280;55283;51.466;5.478;2022-08-07T01:29:32;102449.06;;;25.25;29.74
68366;BME280;55283;51.466;5.478;2022-08-07T01:31:58;102442.63;;;25.24;29.77
68366;BME280;55283;51.466;5.478;2022-08-07T01:34:24;102443.88;;;25.23;29.82
68366;BME280;55283;51.466;5.478;2022-08-07T01:36:50;102436.28;;;25.20;29.86
68366;BME280;55283;51.466;5.478;2022-08-07T01:39:18;102439.03;;;25.24;29.64
68366;BME280;55283;51.466;5.478;2022-08-07T01:41:43;102433.03;;;25.22;29.76
68366;BME280;55283;51.466;5.478;2022-08-07T01:44:12;102433.91;;;25.19;29.83
68366;BME280;55283;51.466;5.478;2022-08-07T01:46:40;102442.81;;;25.17;29.72
68366;BME280;55283;51.466;5.478;2022-08-07T01:49:06;102436.38;;;25.17;29.79
68366;BME280;55283;51.466;5.478;2022-08-07T01:51:32;102429.91;;;25.16;29.84
68366;BME280;55283;51.466;5.478;2022-08-07T01:54:02;102430.38;;;25.15;29.86
68366;BME280;55283;51.466;5.478;2022-08-07T01:56:32;102428.78;;;25.14;29.93
68366;BME280;55283;51.466;5.478;2022-08-07T01:59:12;102429.31;;;25.09;29.94
68366;BME280;55283;51.466;5.478;2022-08-07T02:01:43;102425.97;;;25.14;29.99
68366;BME280;55283;51.466;5.478;2022-08-07T02:04:33;102428.94;;;25.06;30.03
68366;BME280;55283;51.466;5.478;2022-08-07T02:07:02;102431.66;;;25.10;29.98
68366;BME280;55283;51.466;5.478;2022-08-07T02:09:31;102434.94;;;25.09;30.09
68366;BME280;55283;51.466;5.478;2022-08-07T02:11:57;102426.09;;;25.06;30.09
68366;BME280;55283;51.466;5.478;2022-08-07T02:14:42;102430.50;;;25.07;30.15
68366;BME280;55283;51.466;5.478;2022-08-07T02:17:12;102429.31;;;25.09;30.26
68366;BME280;55283;51.466;5.478;2022-08-07T02:19:40;102423.28;;;25.06;30.18
68366;BME280;55283;51.466;5.478;2022-08-07T02:22:09;102424.53;;;25.05;30.13
68366;BME280;55283;51.466;5.478;2022-08-07T02:24:36;102420.09;;;25.04;30.25
68366;BME280;55283;51.466;5.478;2022-08-07T02:27:04;102416.13;;;25.02;30.17
68366;BME280;55283;51.466;5.478;2022-08-07T02:29:31;102421.44;;;25.00;30.22
68366;BME280;55283;51.466;5.478;2022-08-07T02:31:59;102417.06;;;24.95;30.26
68366;BME280;55283;51.466;5.478;2022-08-07T02:34:25;102418.16;;;25.01;30.22
68366;BME280;55283;51.466;5.478;2022-08-07T02:36:51;102424.66;;;24.98;30.29
68366;BME280;55283;51.466;5.478;2022-08-07T02:39:17;102419.03;;;24.98;30.30
68366;BME280;55283;51.466;5.478;2022-08-07T02:41:44;102415.00;;;24.99;30.32
68366;BME280;55283;51.466;5.478;2022-08-07T02:44:10;102418.25;;;24.98;30.31
68366;BME280;55283;51.466;5.478;2022-08-07T02:46:41;102414.25;;;24.95;30.28
68366;BME280;55283;51.466;5.478;2022-08-07T02:49:07;102410.22;;;24.96;30.40
68366;BME280;55283;51.466;5.478;2022-08-07T02:51:34;102408.63;;;24.95;30.33
68366;BME280;55283;51.466;5.478;2022-08-07T02:54:01;102405.38;;;24.97;30.40
68366;BME280;55283;51.466;5.478;2022-08-07T02:56:30;102411.88;;;24.94;30.40
68366;BME280;55283;51.466;5.478;2022-08-07T02:59:02;102412.22;;;24.96;30.41
68366;BME280;55283;51.466;5.478;2022-08-07T03:01:29;102418.41;;;24.91;30.45
68366;BME280;55283;51.466;5.478;2022-08-07T03:03:55;102408.78;;;24.88;30.53
68366;BME280;55283;51.466;5.478;2022-08-07T03:06:22;102416.00;;;24.89;30.51
68366;BME280;55283;51.466;5.478;2022-08-07T03:08:48;102410.38;;;24.89;30.52
68366;BME280;55283;51.466;5.478;2022-08-07T03:11:14;102404.00;;;24.85;30.50
68366;BME280;55283;51.466;5.478;2022-08-07T03:13:41;102407.25;;;24.83;30.53
68366;BME280;55283;51.466;5.478;2022-08-07T03:16:07;102407.25;;;24.83;30.60
68366;BME280;55283;51.466;5.478;2022-08-07T03:18:33;102395.97;;;24.83;30.52
68366;BME280;55283;51.466;5.478;2022-08-07T03:20:59;102400.03;;;24.82;30.57
68366;BME280;55283;51.466;5.478;2022-08-07T03:23:26;102407.72;;;24.82;30.57
68366;BME280;55283;51.466;5.478;2022-08-07T03:25:52;102404.88;;;24.82;30.59
68366;BME280;55283;51.466;5.478;2022-08-07T03:28:20;102363.84;;;24.57;30.57
68366;BME280;55283;51.466;5.478;2022-08-07T03:30:47;102403.28;;;24.81;30.61
68366;BME280;55283;51.466;5.478;2022-08-07T03:33:15;102407.41;;;24.76;30.59
68366;BME280;55283;51.466;5.478;2022-08-07T03:35:43;102408.91;;;24.81;30.59
68366;BME280;55283;51.466;5.478;2022-08-07T03:38:10;102408.56;;;24.79;30.59
68366;BME280;55283;51.466;5.478;2022-08-07T03:40:36;102400.53;;;24.77;30.69
68366;BME280;55283;51.466;5.478;2022-08-07T03:43:04;102400.16;;;24.75;30.68
68366;BME280;55283;51.466;5.478;2022-08-07T03:45:31;102398.66;;;24.71;30.74
68366;BME280;55283;51.466;5.478;2022-08-07T03:47:57;102409.56;;;24.69;30.72
68366;BME280;55283;51.466;5.478;2022-08-07T03:50:24;102405.94;;;24.68;30.78
68366;BME280;55283;51.466;5.478;2022-08-07T03:52:51;102403.53;;;24.70;30.67
68366;BME280;55283;51.466;5.478;2022-08-07T03:55:16;102401.09;;;24.69;30.72
68366;BME280;55283;51.466;5.478;2022-08-07T03:57:42;102406.72;;;24.69;30.64
68366;BME280;55283;51.466;5.478;2022-08-07T04:00:10;102406.72;;;24.69;30.74
68366;BME280;55283;51.466;5.478;2022-08-07T04:02:36;102412.00;;;24.67;30.72
68366;BME280;55283;51.466;5.478;2022-08-07T04:05:02;102410.41;;;24.66;30.81
68366;BME280;55283;51.466;5.478;2022-08-07T04:07:30;102403.53;;;24.67;30.90
68366;BME280;55283;51.466;5.478;2022-08-07T04:09:59;102416.47;;;24.64;30.67
68366;BME280;55283;51.466;5.478;2022-08-07T04:12:25;102418.88;;;24.66;30.88
68366;BME280;55283;51.466;5.478;2022-08-07T04:14:51;102415.28;;;24.65;30.76
68366;BME280;55283;51.466;5.478;2022-08-07T04:17:17;102415.69;;;24.63;30.79
68366;BME280;55283;51.466;5.478;2022-08-07T04:19:43;102416.94;;;24.62;30.86
68366;BME280;55283;51.466;5.478;2022-08-07T04:22:11;102420.63;;;24.59;30.75
68366;BME280;55283;51.466;5.478;2022-08-07T04:24:38;102425.38;;;24.62;30.89
68366;BME280;55283;51.466;5.478;2022-08-07T04:27:04;102419.81;;;24.59;30.92
68366;BME280;55283;51.466;5.478;2022-08-07T04:29:29;102425.88;;;24.57;30.87
68366;BME280;55283;51.466;5.478;2022-08-07T04:31:55;102420.69;;;24.56;30.91
68366;BME280;55283;51.466;5.478;2022-08-07T04:34:21;102427.13;;;24.56;30.98
68366;BME280;55283;51.466;5.478;2022-08-07T04:36:47;102422.78;;;24.52;31.06
68366;BME280;55283;51.466;5.478;2022-08-07T04:39:18;102425.88;;;24.57;30.90
68366;BME280;55283;51.466;5.478;2022-08-07T04:41:44;102429.56;;;24.54;30.85
68366;BME280;55283;51.466;5.478;2022-08-07T04:44:09;102429.56;;;24.54;30.94
68366;BME280;55283;51.466;5.478;2022-08-07T04:46:46;102415.25;;;24.45;30.98
68366;BME280;55283;51.466;5.478;2022-08-07T04:54:54;102426.91;;;24.47;31.01
68366;BME280;55283;51.466;5.478;2022-08-07T04:57:28;102433.63;;;24.53;31.14
68366;BME280;55283;51.466;5.478;2022-08-07T05:00:54;102439.34;;;24.50;31.09
68366;BME280;55283;51.466;5.478;2022-08-07T05:03:03;102435.28;;;24.51;30.93
68366;BME280;55283;51.466;5.478;2022-08-07T05:10:57;102440.56;;;24.49;30.84
68366;BME280;55283;51.466;5.478;2022-08-07T05:13:28;102443.81;;;24.47;30.97
68366;BME280;55283;51.466;5.478;2022-08-07T05:15:58;102440.25;;;24.43;31.34
68366;BME280;55283;51.466;5.478;2022-08-07T05:18:28;102445.31;;;24.52;31.69
68366;BME280;55283;51.466;5.478;2022-08-07T05:20:56;102441.22;;;24.56;31.30
68366;BME280;55283;51.466;5.478;2022-08-07T05:23:29;102448.81;;;24.59;31.23
68366;BME280;55283;51.466;5.478;2022-08-07T05:25:57;102448.03;;;24.59;31.08
68366;BME280;55283;51.466;5.478;2022-08-07T05:28:25;102442.72;;;24.61;31.11
68366;BME280;55283;51.466;5.478;2022-08-07T05:30:52;102447.50;;;24.64;31.11
68366;BME280;55283;51.466;5.478;2022-08-07T05:33:19;102450.25;;;24.68;31.03
68366;BME280;55283;51.466;5.478;2022-08-07T05:35:46;102448.66;;;24.67;30.96
68366;BME280;55283;51.466;5.478;2022-08-07T05:38:13;102455.47;;;24.69;30.94
68366;BME280;55283;51.466;5.478;2022-08-07T05:40:39;102472.78;;;24.71;30.92
68366;BME280;55283;51.466;5.478;2022-08-07T05:43:04;102459.59;;;24.65;30.96
68366;BME280;55283;51.466;5.478;2022-08-07T05:45:30;102463.88;;;24.73;31.32
68366;BME280;55283;51.466;5.478;2022-08-07T05:47:56;102456.28;;;24.70;31.26
68366;BME280;55283;51.466;5.478;2022-08-07T05:50:22;102455.00;;;24.74;31.06
68366;BME280;55283;51.466;5.478;2022-08-07T05:52:48;102453.34;;;24.77;31.00
68366;BME280;55283;51.466;5.478;2022-08-07T05:55:14;102445.38;;;24.72;30.88
68366;BME280;55283;51.466;5.478;2022-08-07T05:57:40;102445.38;;;24.72;31.01
68366;BME280;55283;51.466;5.478;2022-08-07T06:00:08;102458.97;;;24.77;30.93
68366;BME280;55283;51.466;5.478;2022-08-07T06:02:35;102471.03;;;24.77;31.09
68366;BME280;55283;51.466;5.478;2022-08-07T06:05:07;102477.47;;;24.78;31.00
68366;BME280;55283;51.466;5.478;2022-08-07T06:07:36;102481.91;;;24.79;30.90
68366;BME280;55283;51.466;5.478;2022-08-07T06:10:03;102475.03;;;24.80;30.91
68366;BME280;55283;51.466;5.478;2022-08-07T06:12:29;102480.66;;;24.80;30.84
68366;BME280;55283;51.466;5.478;2022-08-07T06:14:57;102478.72;;;24.77;30.99
68366;BME280;55283;51.466;5.478;2022-08-07T06:17:26;102475.16;;;24.73;31.31
68366;BME280;55283;51.466;5.478;2022-08-07T06:19:52;102476.06;;;24.66;31.04
68366;BME280;55283;51.466;5.478;2022-08-07T06:22:18;102470.19;;;24.57;31.50
68366;BME280;55283;51.466;5.478;2022-08-07T06:24:45;102467.09;;;24.51;31.27
68366;BME280;55283;51.466;5.478;2022-08-07T06:27:21;102467.53;;;24.50;31.29
68366;BME280;55283;51.466;5.478;2022-08-07T06:29:47;102458.97;;;24.33;31.27
68366;BME280;55283;51.466;5.478;2022-08-07T06:32:12;102470.91;;;24.17;31.56
68366;BME280;55283;51.466;5.478;2022-08-07T06:34:38;102464.75;;;23.99;31.77
68366;BME280;55283;51.466;5.478;2022-08-07T06:37:03;102464.63;;;23.83;32.22
68366;BME280;55283;51.466;5.478;2022-08-07T06:39:29;102465.44;;;23.80;32.27
68366;BME280;55283;51.466;5.478;2022-08-07T06:42:05;102419.38;;;23.43;32.49
68366;BME280;55283;51.466;5.478;2022-08-07T06:44:33;102459.31;;;23.61;33.49
68366;BME280;55283;51.466;5.478;2022-08-07T06:47:04;102461.28;;;23.64;32.92
68366;BME280;55283;51.466;5.478;2022-08-07T06:49:29;102437.63;;;23.58;33.04
68366;BME280;55283;51.466;5.478;2022-08-07T06:51:55;102456.66;;;23.78;32.63
68366;BME280;55283;51.466;5.478;2022-08-07T06:54:23;102458.25;;;23.79;32.22
68366;BME280;55283;51.466;5.478;2022-08-07T06:56:50;102453.09;;;23.73;32.25
68366;BME280;55283;51.466;5.478;2022-08-07T06:59:21;102453.59;;;23.68;32.46
68366;BME280;55283;51.466;5.478;2022-08-07T07:01:49;102450.50;;;23.59;32.49
68366;BME280;55283;51.466;5.478;2022-08-07T07:04:20;102454.53;;;23.58;32.66
68366;BME280;55283;51.466;5.478;2022-08-07T07:06:45;102450.31;;;23.70;32.80
68366;BME280;55283;51.466;5.478;2022-08-07T07:14:33;102445.97;;;23.92;32.33
68366;BME280;55283;51.466;5.478;2022-08-07T07:17:05;102449.00;;;24.02;32.27
68366;BME280;55283;51.466;5.478;2022-08-07T07:19:43;102446.53;;;24.07;32.02
68366;BME280;55283;51.466;5.478;2022-08-07T07:22:11;102458.03;;;24.16;32.01
68366;BME280;55283;51.466;5.478;2022-08-07T07:24:38;102451.44;;;24.27;32.11
68366;BME280;55283;51.466;5.478;2022-08-07T07:27:05;102452.88;;;24.35;31.73
68366;BME280;55283;51.466;5.478;2022-08-07T07:29:35;102452.09;;;24.34;31.26
68366;BME280;55283;51.466;5.478;2022-08-07T07:32:05;102451.44;;;24.27;31.25
68366;BME280;55283;51.466;5.478;2022-08-07T07:34:33;102449.91;;;24.22;31.47
68366;BME280;55283;51.466;5.478;2022-08-07T07:37:02;102452.03;;;24.14;31.42
68366;BME280;55283;51.466;5.478;2022-08-07T07:39:29;102449.66;;;24.13;31.79
68366;BME280;55283;51.466;5.478;2022-08-07T07:41:56;102442.31;;;24.19;31.93
68366;BME280;55283;51.466;5.478;2022-08-07T07:44:23;102445.81;;;24.27;31.65
68366;BME280;55283;51.466;5.478;2022-08-07T07:46:50;102446.97;;;24.29;31.72
68366;BME280;55283;51.466;5.478;2022-08-07T07:49:17;102451.22;;;24.37;31.75
68366;BME280;55283;51.466;5.478;2022-08-07T07:51:44;102443.38;;;24.49;31.94
68366;BME280;55283;51.466;5.478;2022-08-07T07:54:12;102432.88;;;24.49;31.08
68366;BME280;55283;51.466;5.478;2022-08-07T07:56:39;102426.91;;;24.47;31.35
68366;BME280;55283;51.466;5.478;2022-08-07T07:59:05;102431.31;;;24.48;31.19
68366;BME280;55283;51.466;5.478;2022-08-07T08:01:33;102422.47;;;24.46;31.34
68366;BME280;55283;51.466;5.478;2022-08-07T08:04:02;102423.50;;;24.56;31.26
68366;BME280;55283;51.466;5.478;2022-08-07T08:06:29;102412.56;;;24.58;31.07
68366;BME280;55283;51.466;5.478;2022-08-07T08:08:56;102425.91;;;24.77;30.59
68366;BME280;55283;51.466;5.478;2022-08-07T08:11:25;102433.44;;;24.84;30.13
68366;BME280;55283;51.466;5.478;2022-08-07T08:13:51;102427.06;;;24.80;30.06
68366;BME280;55283;51.466;5.478;2022-08-07T08:16:18;102425.03;;;24.80;30.11
68366;BME280;55283;51.466;5.478;2022-08-07T08:18:45;102422.69;;;24.79;29.97
68366;BME280;55283;51.466;5.478;2022-08-07T08:21:14;102405.44;;;24.53;29.90
68366;BME280;55283;51.466;5.478;2022-08-07T08:24:01;102429.44;;;24.81;29.60
68366;BME280;55283;51.466;5.478;2022-08-07T08:26:51;102422.44;;;24.90;29.50
68366;BME280;55283;51.466;5.478;2022-08-07T08:29:32;102425.53;;;24.95;29.53
68366;BME280;55283;51.466;5.478;2022-08-07T08:32:02;102425.91;;;24.97;29.69
68366;BME280;55283;51.466;5.478;2022-08-07T08:34:30;102439.06;;;25.04;29.66
68366;BME280;55283;51.466;5.478;2022-08-07T08:36:58;102432.41;;;25.14;29.57
68366;BME280;55283;51.466;5.478;2022-08-07T08:39:27;102435.50;;;25.20;29.42
68366;BME280;55283;51.466;5.478;2022-08-07T08:41:58;102431.66;;;25.10;29.37
68366;BME280;55283;51.466;5.478;2022-08-07T08:45:33;102428.19;;;25.22;29.28
68366;BME280;55283;51.466;5.478;2022-08-07T08:50:37;102427.94;;;25.33;29.05
68366;BME280;55283;51.466;5.478;2022-08-07T08:53:21;102430.28;;;25.38;29.18
68366;BME280;55283;51.466;5.478;2022-08-07T08:55:53;102419.94;;;25.48;28.99
68366;BME280;55283;51.466;5.478;2022-08-07T08:58:58;102426.16;;;25.43;29.17
68366;BME280;55283;51.466;5.478;2022-08-07T09:04:16;102432.16;;;25.61;28.89
68366;BME280;55283;51.466;5.478;2022-08-07T09:12:55;102418.31;;;25.67;28.83
68366;BME280;55283;51.466;5.478;2022-08-07T09:15:43;102428.72;;;25.70;28.81
68366;BME280;55283;51.466;5.478;2022-08-07T09:20:56;102429.41;;;25.74;28.67
68366;BME280;55283;51.466;5.478;2022-08-07T09:28:53;102412.09;;;25.88;28.22
68366;BME280;55283;51.466;5.478;2022-08-07T09:31:55;102419.88;;;25.84;28.60
68366;BME280;55283;51.466;5.478;2022-08-07T09:34:46;102411.41;;;25.84;28.40
68366;BME280;55283;51.466;5.478;2022-08-07T09:45:39;102408.91;;;25.86;28.39
68366;BME280;55283;51.466;5.478;2022-08-07T09:48:12;102395.16;;;25.88;29.72
68366;BME280;55283;51.466;5.478;2022-08-07T09:53:35;102403.63;;;25.88;31.37
68366;BME280;55283;51.466;5.478;2022-08-07T09:59:22;102389.41;;;25.92;29.33
68366;BME280;55283;51.466;5.478;2022-08-07T10:04:52;102382.88;;;25.95;29.85
68366;BME280;55283;51.466;5.478;2022-08-07T10:08:36;102376.28;;;26.02;29.18
68366;BME280;55283;51.466;5.478;2022-08-07T10:13:46;102361.00;;;25.99;29.53
68366;BME280;55283;51.466;5.478;2022-08-07T10:16:34;102365.06;;;25.98;28.43
68366;BME280;55283;51.466;5.478;2022-08-07T10:30:24;102368.13;;;26.04;28.92
68366;BME280;55283;51.466;5.478;2022-08-07T10:41:30;102355.97;;;26.07;28.62
68366;BME280;55283;51.466;5.478;2022-08-07T10:44:25;102350.31;;;26.07;28.35
68366;BME280;55283;51.466;5.478;2022-08-07T10:47:11;102343.97;;;26.03;27.88
68366;BME280;55283;51.466;5.478;2022-08-07T10:49:46;102345.53;;;26.04;27.98
68366;BME280;55283;51.466;5.478;2022-08-07T10:55:21;102340.84;;;26.13;27.92
68366;BME280;55283;51.466;5.478;2022-08-07T10:58:02;102340.84;;;26.13;27.99
68366;BME280;55283;51.466;5.478;2022-08-07T11:00:33;102331.38;;;26.20;27.81
68366;BME280;55283;51.466;5.478;2022-08-07T11:03:16;102332.16;;;26.21;27.81
68366;BME280;55283;51.466;5.478;2022-08-07T11:06:13;102332.03;;;26.24;27.68
68366;BME280;55283;51.466;5.478;2022-08-07T11:08:40;102323.91;;;26.26;27.72
68366;BME280;55283;51.466;5.478;2022-08-07T11:11:25;102330.38;;;26.27;27.77
68366;BME280;55283;51.466;5.478;2022-08-07T11:13:56;102317.06;;;26.27;27.84
68366;BME280;55283;51.466;5.478;2022-08-07T11:18:54;102313.41;;;26.27;27.60
68366;BME280;55283;51.466;5.478;2022-08-07T11:24:29;102318.28;;;26.26;27.98
68366;BME280;55283;51.466;5.478;2022-08-07T11:27:18;102297.69;;;26.26;27.85
68366;BME280;55283;51.466;5.478;2022-08-07T11:29:56;102310.94;;;26.29;27.78
68366;BME280;55283;51.466;5.478;2022-08-07T11:32:43;102306.97;;;26.26;27.82
68366;BME280;55283;51.466;5.478;2022-08-07T11:35:16;102310.94;;;26.29;27.70
68366;BME280;55283;51.466;5.478;2022-08-07T11:38:06;102303.25;;;26.29;27.89
68366;BME280;55283;51.466;5.478;2022-08-07T11:40:48;102297.16;;;26.31;27.82
68366;BME280;55283;51.466;5.478;2022-08-07T11:46:18;102297.94;;;26.31;27.74
68366;BME280;55283;51.466;5.478;2022-08-07T11:52:01;102287.41;;;26.32;27.48
68366;BME280;55283;51.466;5.478;2022-08-07T12:05:51;102282.66;;;26.29;27.18
68366;BME280;55283;51.466;5.478;2022-08-07T12:08:23;102279.06;;;26.28;27.16
68366;BME280;55283;51.466;5.478;2022-08-07T12:13:53;102283.44;;;26.29;26.45
68366;BME280;55283;51.466;5.478;2022-08-07T12:16:35;102283.13;;;26.27;26.91
68366;BME280;55283;51.466;5.478;2022-08-07T12:19:10;102281.31;;;26.33;26.43
68366;BME280;55283;51.466;5.478;2022-08-07T12:21:41;102279.28;;;26.34;26.56
68366;BME280;55283;51.466;5.478;2022-08-07T12:24:21;102264.91;;;26.28;26.38
68366;BME280;55283;51.466;5.478;2022-08-07T12:27:03;102267.09;;;26.37;25.89
68366;BME280;55283;51.466;5.478;2022-08-07T12:34:40;102235.81;;;26.15;25.94
68366;BME280;55283;51.466;5.478;2022-08-07T12:37:11;102268.34;;;26.36;25.43
68366;BME280;55283;51.466;5.478;2022-08-07T12:39:39;102236.84;;;26.21;25.13
68366;BME280;55283;51.466;5.478;2022-08-07T12:42:07;102262.69;;;26.49;25.47
68366;BME280;55283;51.466;5.478;2022-08-07T12:44:37;102252.63;;;26.48;25.19
68366;BME280;55283;51.466;5.478;2022-08-07T12:47:13;102255.22;;;26.42;25.03
68366;BME280;55283;51.466;5.478;2022-08-07T12:49:58;102249.66;;;26.38;25.43
68366;BME280;55283;51.466;5.478;2022-08-07T12:52:52;102237.78;;;26.31;25.05
68366;BME280;55283;51.466;5.478;2022-08-07T12:55:26;102250.91;;;26.37;25.64
68366;BME280;55283;51.466;5.478;2022-08-07T12:57:57;102257.22;;;26.41;25.38
68366;BME280;55283;51.466;5.478;2022-08-07T13:00:45;102250.00;;;26.40;25.24
68366;BME280;55283;51.466;5.478;2022-08-07T13:14:45;102227.38;;;26.40;25.33
68366;BME280;55283;51.466;5.478;2022-08-07T13:17:32;102234.06;;;26.47;25.55
68366;BME280;55283;51.466;5.478;2022-08-07T13:20:42;102232.50;;;26.46;25.33
68366;BME280;55283;51.466;5.478;2022-08-07T13:23:18;102229.19;;;26.47;25.23
68366;BME280;55283;51.466;5.478;2022-08-07T13:26:05;102223.31;;;26.41;25.50
68366;BME280;55283;51.466;5.478;2022-08-07T13:28:38;102229.19;;;26.47;25.74
68366;BME280;55283;51.466;5.478;2022-08-07T13:31:21;102220.47;;;26.41;25.62
68366;BME280;55283;51.466;5.478;2022-08-07T13:33:57;102216.78;;;26.45;25.84
68366;BME280;55283;51.466;5.478;2022-08-07T13:36:34;102208.63;;;26.47;25.97
68366;BME280;55283;51.466;5.478;2022-08-07T13:39:47;102217.88;;;26.47;25.79
68366;BME280;55283;51.466;5.478;2022-08-07T13:42:09;102225.03;;;26.52;26.02
68366;BME280;55283;51.466;5.478;2022-08-07T13:44:41;102212.94;;;26.51;25.91
68366;BME280;55283;51.466;5.478;2022-08-07T13:47:09;102208.41;;;26.54;25.90
68366;BME280;55283;51.466;5.478;2022-08-07T13:49:45;102210.88;;;26.52;26.11
68366;BME280;55283;51.466;5.478;2022-08-07T13:52:15;102210.44;;;26.53;26.08
68366;BME280;55283;51.466;5.478;2022-08-07T13:54:42;102211.25;;;26.54;26.11
68366;BME280;55283;51.466;5.478;2022-08-07T13:57:09;102204.44;;;26.51;26.25
68366;BME280;55283;51.466;5.478;2022-08-07T13:59:42;102207.41;;;26.48;26.31
68366;BME280;55283;51.466;5.478;2022-08-07T14:02:20;102202.19;;;26.46;26.01
68366;BME280;55283;51.466;5.478;2022-08-07T14:04:49;102202.84;;;26.50;26.37
68366;BME280;55283;51.466;5.478;2022-08-07T14:07:27;102197.31;;;26.47;26.17
68366;BME280;55283;51.466;5.478;2022-08-07T14:09:58;102198.00;;;26.51;26.27
68366;BME280;55283;51.466;5.478;2022-08-07T14:15:06;102190.19;;;26.55;26.30
68366;BME280;55283;51.466;5.478;2022-08-07T14:17:35;102188.94;;;26.56;26.24
68366;BME280;55283;51.466;5.478;2022-08-07T14:20:09;102195.19;;;26.51;26.05
68366;BME280;55283;51.466;5.478;2022-08-07T14:22:40;102186.91;;;26.56;26.18
68366;BME280;55283;51.466;5.478;2022-08-07T14:25:10;102188.94;;;26.56;26.40
68366;BME280;55283;51.466;5.478;2022-08-07T14:27:44;102192.56;;;26.56;26.53
68366;BME280;55283;51.466;5.478;2022-08-07T14:30:11;102199.81;;;26.57;26.52
68366;BME280;55283;51.466;5.478;2022-08-07T14:32:47;102182.84;;;26.57;26.38
68366;BME280;55283;51.466;5.478;2022-08-07T14:35:20;102183.75;;;26.54;26.48
68366;BME280;55283;51.466;5.478;2022-08-07T14:37:48;102175.25;;;26.54;26.41
68366;BME280;55283;51.466;5.478;2022-08-07T14:40:19;102184.41;;;26.58;26.34
68366;BME280;55283;51.466;5.478;2022-08-07T14:42:59;102177.06;;;26.48;26.69
68366;BME280;55283;51.466;5.478;2022-08-07T14:45:28;102184.09;;;26.56;26.53
68366;BME280;55283;51.466;5.478;2022-08-07T14:47:55;102185.13;;;26.62;26.26
68366;BME280;55283;51.466;5.478;2022-08-07T14:50:22;102175.84;;;26.62;26.38
68366;BME280;55283;51.466;5.478;2022-08-07T14:52:50;102184.41;;;26.58;26.70
68366;BME280;55283;51.466;5.478;2022-08-07T14:55:17;102174.78;;;26.56;26.86
68366;BME280;55283;51.466;5.478;2022-08-07T14:57:46;102142.22;;;26.38;26.39
68366;BME280;55283;51.466;5.478;2022-08-07T15:00:14;102173.88;;;26.59;26.81
68366;BME280;55283;51.466;5.478;2022-08-07T15:02:43;102172.22;;;26.61;26.74
68366;BME280;55283;51.466;5.478;2022-08-07T15:05:14;102179.78;;;26.52;26.62
68366;BME280;55283;51.466;5.478;2022-08-07T15:07:42;102172.66;;;26.60;26.82
68366;BME280;55283;51.466;5.478;2022-08-07T15:10:16;102169.84;;;26.60;26.66
68366;BME280;55283;51.466;5.478;2022-08-07T15:12:42;102169.41;;;26.61;26.57
68366;BME280;55283;51.466;5.478;2022-08-07T15:15:12;102173.00;;;26.62;26.29